Time;durP1;ratioP1;P1;durP2;ratioP2;P2;SDS_P1;SDS_P2;PMS_P1;PMS_P2;Temp;Humidity;BMP_temperature;BMP_pressure;BME280_temperature;BME280_humidity;BME280_pressure;Samples;Min_cycle;Max_cycle;Signal;HPM_P1;HPM_P2
2022/11/16 00:02:23;;;;;;;1.50;0.30;;;;;;;;;;20927629;28;20404;-62
2022/11/16 00:12:25;;;;;;;0.82;0.40;;;;;;;;;;20925578;28;20416;-62
2022/11/16 00:22:27;;;;;;;1.13;0.47;;;;;;;;;;20924378;28;20099;-60
2022/11/16 00:32:30;;;;;;;0.80;0.30;;;;;;;;;;20924192;28;20414;-61
2022/11/16 00:42:31;;;;;;;0.52;0.35;;;;;;;;;;20922941;28;20045;-60
2022/11/16 00:52:33;;;;;;;1.08;0.63;;;;;;;;;;20921667;28;20088;-60
2022/11/16 01:02:35;;;;;;;2.60;0.40;;;;;;;;;;20921239;28;20057;-61
2022/11/16 01:12:37;;;;;;;5.22;2.15;;;;;;;;;;20920533;28;20110;-59
2022/11/16 01:22:39;;;;;;;0.73;0.40;;;;;;;;;;20919503;28;20057;-59
2022/11/16 01:32:41;;;;;;;1.08;0.40;;;;;;;;;;20919180;28;20484;-59
2022/11/16 01:42:43;;;;;;;1.73;0.50;;;;;;;;;;20917608;28;20053;-61
2022/11/16 01:52:47;;;;;;;1.35;0.30;;;;;;;;;;20916186;28;20052;-61
2022/11/16 02:02:49;;;;;;;0.98;0.47;;;;;;;;;;20916914;28;20591;-62
2022/11/16 02:13:03;;;;;;;2.45;0.40;;;;;;;;;;20915585;28;20613;-61
2022/11/16 02:23:06;;;;;;;1.13;0.30;;;;;;;;;;20897316;28;20420;-62
2022/11/16 02:33:11;;;;;;;4.32;0.40;;;;;;;;;;20914200;28;20052;-62
2022/11/16 02:43:27;;;;;;;3.45;0.52;;;;;;;;;;20914606;28;20167;-62
2022/11/16 02:53:40;;;;;;;0.98;0.40;;;;;;;;;;20913474;28;20062;-62
2022/11/16 03:03:57;;;;;;;1.60;0.50;;;;;;;;;;20925888;28;20566;-62
2022/11/16 03:14:03;;;;;;;1.85;0.40;;;;;;;;;;20928780;28;20064;-63
2022/11/16 03:24:07;;;;;;;1.77;0.50;;;;;;;;;;20928277;28;20053;-63
2022/11/16 03:34:15;;;;;;;4.32;0.60;;;;;;;;;;20928391;28;20092;-62
2022/11/16 03:44:19;;;;;;;2.53;0.60;;;;;;;;;;20927437;28;20485;-62
2022/11/16 03:54:22;;;;;;;3.92;1.00;;;;;;;;;;20925797;28;20048;-61
2022/11/16 04:25:13;;;;;;;6.32;0.90;;;;;;;;;;20923532;28;20057;-62
2022/11/16 04:55:57;;;;;;;3.58;0.75;;;;;;;;;;20921151;28;20057;-63
2022/11/16 05:05:59;;;;;;;2.95;1.00;;;;;;;;;;20920391;28;20049;-61
2022/11/16 05:16:01;;;;;;;5.60;1.25;;;;;;;;;;20902903;28;20049;-61
2022/11/16 05:26:04;;;;;;;2.70;0.52;;;;;;;;;;20917311;28;20057;-61
2022/11/16 05:36:07;;;;;;;1.98;0.60;;;;;;;;;;20919082;28;20095;-60
2022/11/16 05:46:09;;;;;;;3.90;0.80;;;;;;;;;;20917114;28;20045;-62
2022/11/16 05:56:13;;;;;;;2.60;0.73;;;;;;;;;;20917317;28;20550;-62
2022/11/16 06:06:14;;;;;;;4.00;0.90;;;;;;;;;;20916079;28;20539;-62
2022/11/16 06:16:17;;;;;;;4.07;0.82;;;;;;;;;;20915211;28;20063;-63
2022/11/16 06:26:19;;;;;;;3.65;1.08;;;;;;;;;;20915046;28;20057;-61
2022/11/16 06:36:21;;;;;;;5.00;0.88;;;;;;;;;;20914726;28;20481;-63
2022/11/16 06:46:23;;;;;;;3.45;0.80;;;;;;;;;;20914552;28;20056;-63
2022/11/16 06:56:25;;;;;;;7.07;1.40;;;;;;;;;;20912531;28;20056;-61
2022/11/16 07:06:27;;;;;;;9.18;1.63;;;;;;;;;;20913213;28;20049;-62
2022/11/16 07:16:29;;;;;;;8.30;1.35;;;;;;;;;;20912361;28;20516;-61
2022/11/16 07:26:32;;;;;;;9.13;1.48;;;;;;;;;;20893534;28;20053;-62
2022/11/16 07:36:34;;;;;;;5.07;2.00;;;;;;;;;;20910917;28;20089;-61
2022/11/16 07:46:36;;;;;;;5.80;1.52;;;;;;;;;;20916656;28;20056;-60
2022/11/16 07:56:37;;;;;;;7.60;1.58;;;;;;;;;;20926337;28;20084;-61
2022/11/16 08:06:39;;;;;;;6.03;1.63;;;;;;;;;;20923685;28;20049;-62
2022/11/16 08:16:42;;;;;;;6.10;1.70;;;;;;;;;;20924365;28;20132;-60
2022/11/16 08:26:44;;;;;;;5.90;1.75;;;;;;;;;;20923728;28;20436;-61
2022/11/16 08:36:46;;;;;;;7.47;1.38;;;;;;;;;;20923127;28;20109;-61
2022/11/16 08:46:48;;;;;;;4.53;1.30;;;;;;;;;;20921579;28;20091;-63
2022/11/16 08:56:49;;;;;;;4.80;1.65;;;;;;;;;;20922053;28;20053;-62
2022/11/16 09:06:51;;;;;;;4.18;0.88;;;;;;;;;;20920339;28;20056;-62
2022/11/16 09:16:54;;;;;;;7.30;1.60;;;;;;;;;;20920600;28;20064;-63
2022/11/16 09:26:56;;;;;;;5.55;1.10;;;;;;;;;;20918450;28;20053;-62
2022/11/16 09:36:58;;;;;;;6.18;1.02;;;;;;;;;;20919001;28;20691;-62
2022/11/16 09:47:00;;;;;;;2.25;0.70;;;;;;;;;;20917195;28;20120;-62
2022/11/16 09:57:05;;;;;;;3.75;1.60;;;;;;;;;;20916595;28;20072;-61
2022/11/16 10:07:11;;;;;;;2.10;0.50;;;;;;;;;;20914479;28;20049;-60
2022/11/16 10:17:24;;;;;;;2.08;0.73;;;;;;;;;;20914191;28;20183;-60
2022/11/16 10:27:29;;;;;;;2.58;0.73;;;;;;;;;;20913542;28;20055;-63
2022/11/16 10:37:32;;;;;;;5.70;1.10;;;;;;;;;;20914104;28;20060;-62
2022/11/16 10:47:41;;;;;;;5.03;1.38;;;;;;;;;;20896888;28;20088;-62
2022/11/16 10:57:54;;;;;;;4.22;0.82;;;;;;;;;;20911955;28;20056;-62
2022/11/16 11:08:25;;;;;;;16.50;10.07;;;;;;;;;;20913304;28;20397;-63
2022/11/16 11:18:30;;;;;;;6.10;1.70;;;;;;;;;;20500024;28;20055;-62
2022/11/16 11:28:34;;;;;;;4.10;1.02;;;;;;;;;;20512960;28;20043;-63
2022/11/16 11:38:54;;;;;;;2.97;0.80;;;;;;;;;;20512971;28;20102;-64
2022/11/16 11:49:00;;;;;;;2.08;0.90;;;;;;;;;;20634205;28;20051;-62
2022/11/16 11:59:03;;;;;;;4.65;1.15;;;;;;;;;;20926424;28;20131;-62
2022/11/16 12:09:20;;;;;;;6.07;1.08;;;;;;;;;;20925498;28;20124;-63
2022/11/16 12:19:33;;;;;;;3.10;0.77;;;;;;;;;;20923571;28;20102;-63
2022/11/16 12:29:36;;;;;;;4.22;1.05;;;;;;;;;;20922837;28;20053;-63
2022/11/16 12:40:04;;;;;;;2.22;0.60;;;;;;;;;;20904523;28;20053;-63
2022/11/16 12:50:21;;;;;;;4.57;1.13;;;;;;;;;;20892301;28;20459;-63
2022/11/16 13:00:22;;;;;;;5.10;0.65;;;;;;;;;;20921450;28;20500;-64
2022/11/16 13:10:37;;;;;;;4.13;1.15;;;;;;;;;;20921088;28;20049;-64
2022/11/16 13:20:55;;;;;;;3.13;1.55;;;;;;;;;;20901219;28;20045;-64
2022/11/16 13:31:14;;;;;;;4.00;1.25;;;;;;;;;;20918660;28;20084;-62
2022/11/16 13:41:33;;;;;;;4.97;1.27;;;;;;;;;;20916735;28;20052;-63
2022/11/16 13:51:35;;;;;;;2.35;0.65;;;;;;;;;;20917086;28;20134;-63
2022/11/16 14:01:56;;;;;;;5.30;1.20;;;;;;;;;;20915813;28;20048;-62
2022/11/16 14:12:18;;;;;;;2.17;0.70;;;;;;;;;;20915281;28;20135;-64
2022/11/16 14:22:22;;;;;;;3.33;0.50;;;;;;;;;;20914772;28;20061;-63
2022/11/16 14:32:26;;;;;;;3.30;1.88;;;;;;;;;;20914016;28;20056;-63
2022/11/16 14:42:30;;;;;;;1.98;0.75;;;;;;;;;;20913749;28;20405;-60
2022/11/16 14:52:36;;;;;;;3.40;0.80;;;;;;;;;;20916436;28;20045;-62
2022/11/16 15:02:39;;;;;;;7.80;4.43;;;;;;;;;;20940105;28;20048;-61
2022/11/16 15:12:42;;;;;;;1.60;0.98;;;;;;;;;;20939475;28;20056;-63
2022/11/16 15:22:45;;;;;;;3.47;1.15;;;;;;;;;;20938832;28;20132;-66
2022/11/16 15:32:48;;;;;;;2.97;1.30;;;;;;;;;;20939793;28;20132;-64
2022/11/16 15:42:52;;;;;;;2.10;1.00;;;;;;;;;;20938879;28;20049;-64
2022/11/16 15:52:54;;;;;;;10.77;4.20;;;;;;;;;;20938760;28;20059;-64
2022/11/16 16:03:01;;;;;;;3.63;1.25;;;;;;;;;;20939356;28;20143;-63
2022/11/16 16:13:22;;;;;;;1.83;0.65;;;;;;;;;;20924113;28;20059;-62
2022/11/16 16:23:25;;;;;;;2.55;1.20;;;;;;;;;;20923570;28;20084;-63
2022/11/16 16:33:27;;;;;;;2.00;0.80;;;;;;;;;;20923741;28;20049;-62
2022/11/16 16:43:30;;;;;;;1.92;0.88;;;;;;;;;;20923266;28;20045;-60
2022/11/16 16:53:32;;;;;;;3.45;1.13;;;;;;;;;;20903891;28;20070;-63
2022/11/16 17:03:33;;;;;;;3.25;1.52;;;;;;;;;;20920855;28;20053;-63
2022/11/16 17:13:36;;;;;;;1.73;0.90;;;;;;;;;;20920865;28;20504;-63
2022/11/16 17:23:37;;;;;;;2.88;1.17;;;;;;;;;;20918563;28;20417;-61
2022/11/16 17:33:42;;;;;;;4.05;1.63;;;;;;;;;;20918581;28;20052;-63
2022/11/16 17:43:45;;;;;;;35.35;26.83;;;;;;;;;;20917560;28;20052;-65
2022/11/16 17:53:48;;;;;;;2.17;1.38;;;;;;;;;;20915936;28;20045;-62
2022/11/16 18:03:50;;;;;;;2.60;1.25;;;;;;;;;;20916421;28;20051;-57
2022/11/16 18:13:56;;;;;;;3.25;1.33;;;;;;;;;;20914236;28;20045;-60
2022/11/16 18:23:59;;;;;;;2.22;1.27;;;;;;;;;;20913514;28;20210;-60
2022/11/16 18:34:01;;;;;;;3.45;1.10;;;;;;;;;;20912944;28;20126;-60
2022/11/16 18:44:05;;;;;;;1.55;0.80;;;;;;;;;;20914044;28;20044;-64
2022/11/16 18:54:07;;;;;;;2.20;1.02;;;;;;;;;;20912224;28;20044;-67
2022/11/16 19:04:10;;;;;;;2.90;1.20;;;;;;;;;;20912309;28;20085;-59
2022/11/16 19:14:12;;;;;;;3.08;1.98;;;;;;;;;;20913114;28;20110;-64
2022/11/16 19:24:14;;;;;;;7.32;1.90;;;;;;;;;;20911750;28;20048;-62
2022/11/16 19:34:16;;;;;;;3.50;1.95;;;;;;;;;;20913059;28;20098;-62
2022/11/16 19:44:18;;;;;;;2.97;1.58;;;;;;;;;;20920339;28;20049;-62
2022/11/16 19:54:21;;;;;;;3.20;1.67;;;;;;;;;;20927291;28;20506;-62
2022/11/16 20:04:24;;;;;;;3.80;1.45;;;;;;;;;;20926077;28;20627;-61
2022/11/16 20:14:26;;;;;;;2.10;0.90;;;;;;;;;;20924698;28;20049;-62
2022/11/16 20:24:28;;;;;;;1.40;0.90;;;;;;;;;;20924076;28;20053;-62
2022/11/16 20:34:30;;;;;;;2.05;1.20;;;;;;;;;;20923419;28;20049;-61
2022/11/16 20:44:32;;;;;;;1.30;0.93;;;;;;;;;;20923013;28;20056;-63
2022/11/16 20:54:34;;;;;;;1.17;1.00;;;;;;;;;;20903640;28;20135;-63
2022/11/16 21:04:37;;;;;;;2.50;1.40;;;;;;;;;;20921008;28;20045;-61
2022/11/16 21:14:39;;;;;;;2.42;1.13;;;;;;;;;;20926772;28;20059;-69
2022/11/16 21:24:41;;;;;;;3.15;1.30;;;;;;;;;;20924129;28;20052;-70
2022/11/16 21:34:43;;;;;;;3.42;1.58;;;;;;;;;;20919954;28;20400;-69
2022/11/16 21:44:45;;;;;;;2.08;1.30;;;;;;;;;;20917953;28;20056;-69
2022/11/16 21:54:47;;;;;;;2.28;0.98;;;;;;;;;;20900282;28;20056;-64
2022/11/16 22:15:10;;;;;;;7.13;3.35;;;;;;;;;;20916218;28;20084;-62
2022/11/16 22:25:13;;;;;;;2.17;1.02;;;;;;;;;;20915092;28;20045;-63
2022/11/16 22:35:15;;;;;;;1.30;0.60;;;;;;;;;;20915389;28;20135;-65
2022/11/16 22:45:17;;;;;;;0.30;0.10;;;;;;;;;;20915706;28;20049;-62
2022/11/16 22:55:19;;;;;;;0.55;0.40;;;;;;;;;;20914021;28;20150;-70
2022/11/16 23:05:23;;;;;;;2.05;0.77;;;;;;;;;;20914071;28;20485;-69
2022/11/16 23:36:07;;;;;;;2.08;0.90;;;;;;;;;;20927762;28;20135;-63
2022/11/16 23:46:09;;;;;;;1.67;0.70;;;;;;;;;;20927125;28;20045;-62
2022/11/16 23:56:11;;;;;;;1.40;0.55;;;;;;;;;;20909733;28;20137;-65
